createdAt,value
2023-04-30T00:02:24.547Z,8.68
2023-04-30T00:04:51.019Z,11.48
2023-04-30T00:07:18.729Z,8.02
2023-04-30T00:09:45.116Z,7.38
2023-04-30T00:12:11.491Z,7.75
2023-04-30T00:14:37.836Z,8.00
2023-04-30T00:17:04.186Z,13.63
2023-04-30T00:19:30.586Z,6.60
2023-04-30T00:21:56.935Z,11.85
2023-04-30T00:24:24.697Z,8.13
2023-04-30T00:26:51.065Z,5.57
2023-04-30T00:29:17.424Z,11.98
2023-04-30T00:31:43.863Z,8.43
2023-04-30T00:34:10.296Z,7.55
2023-04-30T00:36:36.646Z,7.35
2023-04-30T00:39:02.971Z,11.32
2023-04-30T00:41:31.471Z,7.35
2023-04-30T00:43:57.806Z,9.57
2023-04-30T00:46:24.254Z,10.43
2023-04-30T00:48:50.768Z,9.65
2023-04-30T00:51:17.194Z,12.98
2023-04-30T00:53:43.714Z,12.60
2023-04-30T00:56:10.378Z,8.70
2023-04-30T00:58:38.136Z,12.05
2023-04-30T01:01:05.053Z,11.57
2023-04-30T01:03:31.593Z,11.70
2023-04-30T01:05:58.045Z,10.68
2023-04-30T01:08:24.783Z,11.55
2023-04-30T01:10:53.714Z,13.55
2023-04-30T01:13:22.707Z,11.75
2023-04-30T01:15:54.536Z,13.23
2023-04-30T01:18:23.192Z,12.00
2023-04-30T01:20:52.968Z,17.15
2023-04-30T01:23:36.216Z,10.95
2023-04-30T01:26:10.886Z,13.63
2023-04-30T01:28:39.977Z,13.82
2023-04-30T01:31:11.183Z,17.20
2023-04-30T01:33:37.624Z,16.00
2023-04-30T01:36:13.715Z,22.90
2023-04-30T01:38:55.665Z,13.15
2023-04-30T01:41:28.506Z,14.75
2023-04-30T01:44:09.922Z,15.73
2023-04-30T01:46:36.395Z,15.88
2023-04-30T01:49:06.110Z,13.43
2023-04-30T01:54:03.176Z,13.15
2023-04-30T01:56:31.959Z,11.68
2023-04-30T01:59:00.550Z,16.20
2023-04-30T02:01:27.685Z,11.10
2023-04-30T02:03:54.259Z,11.43
2023-04-30T02:06:20.771Z,13.10
2023-04-30T02:08:47.163Z,16.92
2023-04-30T02:11:13.570Z,15.27
2023-04-30T02:13:39.947Z,13.52
2023-04-30T02:16:08.008Z,14.55
2023-04-30T02:18:34.396Z,14.10
2023-04-30T02:21:00.759Z,9.68
2023-04-30T02:23:27.165Z,10.73
2023-04-30T02:25:53.541Z,11.50
2023-04-30T02:28:19.919Z,12.65
2023-04-30T02:30:46.304Z,12.02
2023-04-30T02:33:14.085Z,10.13
2023-04-30T02:35:40.578Z,14.43
2023-04-30T02:38:07.012Z,13.15
2023-04-30T02:40:33.382Z,14.98
2023-04-30T02:42:59.784Z,14.77
2023-04-30T02:45:26.196Z,16.13
2023-04-30T02:47:52.694Z,12.15
2023-04-30T02:50:20.496Z,14.02
2023-04-30T02:52:46.882Z,12.23
2023-04-30T02:55:13.391Z,13.55
2023-04-30T02:57:39.759Z,13.00
2023-04-30T03:00:06.661Z,18.75
2023-04-30T03:02:33.217Z,11.43
2023-04-30T03:04:59.721Z,14.57
2023-04-30T03:07:27.458Z,16.52
2023-04-30T03:09:54.050Z,17.83
2023-04-30T03:12:20.594Z,17.55
2023-04-30T03:14:47.025Z,16.77
2023-04-30T03:17:13.406Z,21.23
2023-04-30T03:19:39.758Z,22.08
2023-04-30T03:22:06.183Z,23.10
2023-04-30T03:24:33.967Z,26.40
2023-04-30T03:27:00.357Z,26.90
2023-04-30T03:29:26.782Z,27.33
2023-04-30T03:31:53.258Z,26.23
2023-04-30T03:34:19.690Z,27.60
2023-04-30T03:36:46.074Z,25.77
2023-04-30T03:39:12.447Z,28.15
2023-04-30T03:41:40.157Z,28.10
2023-04-30T03:44:06.538Z,22.42
2023-04-30T03:46:33.018Z,27.08
2023-04-30T03:48:59.436Z,22.88
2023-04-30T03:51:25.790Z,24.50
2023-04-30T03:53:52.160Z,21.40
2023-04-30T03:56:18.512Z,21.92
2023-04-30T03:58:46.333Z,21.35
2023-04-30T04:01:12.742Z,26.23
2023-04-30T04:03:39.199Z,25.23
2023-04-30T04:06:05.709Z,24.67
2023-04-30T04:08:32.175Z,23.70
2023-04-30T04:10:58.606Z,21.13
2023-04-30T04:13:24.981Z,19.75
2023-04-30T04:15:52.836Z,21.50
2023-04-30T04:18:19.239Z,21.15
2023-04-30T04:20:45.652Z,26.75
2023-04-30T04:23:12.039Z,17.38
2023-04-30T04:25:38.435Z,16.02
2023-04-30T04:28:04.987Z,20.52
2023-04-30T04:30:31.338Z,26.17
2023-04-30T04:32:59.116Z,24.23
2023-04-30T04:35:25.515Z,23.67
2023-04-30T04:37:51.926Z,21.60
2023-04-30T04:40:18.396Z,27.02
2023-04-30T04:42:44.815Z,21.95
2023-04-30T04:45:11.339Z,25.00
2023-04-30T04:47:37.818Z,27.83
2023-04-30T04:50:06.288Z,24.15
2023-04-30T04:52:32.655Z,23.00
2023-04-30T04:54:59.064Z,22.13
2023-04-30T04:57:25.584Z,19.38
2023-04-30T04:59:52.015Z,24.52
2023-04-30T05:02:18.417Z,20.60
2023-04-30T05:04:45.069Z,20.73
2023-04-30T05:07:12.787Z,20.55
2023-04-30T05:09:39.157Z,21.77
2023-04-30T05:12:05.714Z,21.38
2023-04-30T05:14:32.166Z,26.30
2023-04-30T05:16:58.570Z,29.63
2023-04-30T05:19:25.060Z,38.85
2023-04-30T05:21:51.425Z,42.28
2023-04-30T05:24:19.177Z,30.67
2023-04-30T05:26:45.577Z,34.88
2023-04-30T05:29:12.380Z,36.00
2023-04-30T05:31:38.898Z,31.73
2023-04-30T05:34:05.725Z,27.02
2023-04-30T05:36:32.107Z,25.75
2023-04-30T05:38:58.482Z,24.85
2023-04-30T05:41:26.329Z,25.52
2023-04-30T05:43:52.717Z,24.40
2023-04-30T05:46:19.147Z,24.58
2023-04-30T05:48:45.648Z,32.60
2023-04-30T05:51:12.044Z,21.55
2023-04-30T05:53:38.398Z,17.73
2023-04-30T05:56:04.995Z,23.23
2023-04-30T05:58:32.852Z,19.60
2023-04-30T06:00:59.286Z,17.25
2023-04-30T06:03:25.685Z,16.27
2023-04-30T06:05:52.121Z,17.85
2023-04-30T06:08:18.487Z,14.60
2023-04-30T06:10:44.937Z,14.63
2023-04-30T06:13:11.422Z,16.70
2023-04-30T06:15:39.334Z,17.58
2023-04-30T06:18:05.785Z,14.35
2023-04-30T06:20:32.311Z,15.55
2023-04-30T06:22:58.750Z,11.75
2023-04-30T06:25:25.147Z,14.18
2023-04-30T06:27:51.640Z,12.95
2023-04-30T06:30:18.109Z,14.95
2023-04-30T06:32:45.927Z,13.45
2023-04-30T06:35:12.378Z,13.05
2023-04-30T06:37:38.759Z,14.07
2023-04-30T06:40:05.855Z,10.90
2023-04-30T06:42:32.244Z,14.88
2023-04-30T06:44:58.628Z,14.38
2023-04-30T06:47:25.062Z,12.10
2023-04-30T06:49:53.006Z,12.90
2023-04-30T06:52:19.721Z,9.25
2023-04-30T06:54:46.122Z,15.98
2023-04-30T06:57:12.526Z,10.30
2023-04-30T06:59:38.914Z,13.98
2023-04-30T07:02:05.776Z,13.13
2023-04-30T07:04:32.163Z,12.05
2023-04-30T07:06:59.896Z,9.80
2023-04-30T07:09:26.352Z,11.90
2023-04-30T07:11:52.706Z,13.98
2023-04-30T07:14:19.063Z,8.13
2023-04-30T07:16:45.464Z,9.13
2023-04-30T07:19:11.838Z,14.73
2023-04-30T07:21:38.210Z,9.00
2023-04-30T07:24:07.078Z,13.90
2023-04-30T07:26:34.275Z,9.88
2023-04-30T07:29:01.494Z,7.80
2023-04-30T07:31:28.886Z,7.32
2023-04-30T07:33:55.409Z,8.27
2023-04-30T07:36:21.912Z,5.85
2023-04-30T07:38:48.349Z,5.45
2023-04-30T07:41:16.172Z,6.90
2023-04-30T07:43:42.589Z,6.30
2023-04-30T07:46:09.082Z,5.03
2023-04-30T07:48:36.208Z,6.50
2023-04-30T07:51:02.647Z,4.30
2023-04-30T07:53:29.042Z,4.53
2023-04-30T07:55:55.440Z,4.13
2023-04-30T07:58:23.422Z,4.18
2023-04-30T08:00:52.775Z,4.15
2023-04-30T08:03:22.679Z,3.70
2023-04-30T08:05:49.256Z,4.38
2023-04-30T08:08:16.310Z,5.13
2023-04-30T08:10:43.396Z,4.20
2023-04-30T08:13:09.873Z,4.18
2023-04-30T08:15:39.694Z,7.25
2023-04-30T08:18:06.194Z,7.10
2023-04-30T08:20:33.070Z,4.13
2023-04-30T08:22:59.969Z,4.07
2023-04-30T08:25:53.955Z,3.78
2023-04-30T08:28:24.344Z,7.38
2023-04-30T08:30:53.378Z,8.27
2023-04-30T08:33:19.988Z,3.83
2023-04-30T08:36:01.985Z,4.28
2023-04-30T08:38:28.643Z,3.97
2023-04-30T08:41:12.590Z,4.28
2023-04-30T08:43:42.437Z,5.38
2023-04-30T08:46:16.540Z,6.00
2023-04-30T08:48:43.589Z,3.88
2023-04-30T08:51:10.016Z,4.55
2023-04-30T08:53:37.060Z,7.72
2023-04-30T08:56:03.993Z,4.65
2023-04-30T08:58:30.876Z,5.15
2023-04-30T09:00:59.027Z,6.45
2023-04-30T09:03:27.070Z,5.53
2023-04-30T09:05:54.063Z,6.93
2023-04-30T09:08:40.276Z,3.95
2023-04-30T09:11:20.104Z,5.65
2023-04-30T09:14:10.795Z,5.57
2023-04-30T09:16:45.451Z,7.75
2023-04-30T09:19:24.029Z,5.57
2023-04-30T09:21:50.842Z,5.75
2023-04-30T09:24:18.655Z,6.70
2023-04-30T09:26:46.072Z,5.18
2023-04-30T09:29:12.574Z,4.75
2023-04-30T09:31:39.967Z,4.75
2023-04-30T09:34:06.742Z,5.63
2023-04-30T09:36:36.838Z,5.93
2023-04-30T09:39:09.886Z,5.60
2023-04-30T09:41:37.547Z,5.53
2023-04-30T09:44:06.119Z,4.72
2023-04-30T09:46:33.392Z,4.95
2023-04-30T09:49:00.744Z,5.65
2023-04-30T09:51:30.301Z,6.57
2023-04-30T09:53:58.204Z,7.20
2023-04-30T09:56:25.539Z,7.53
2023-04-30T09:58:52.533Z,6.95
2023-04-30T10:01:19.841Z,6.22
2023-04-30T10:03:47.163Z,5.80
2023-04-30T10:06:14.188Z,6.65
2023-04-30T10:08:41.143Z,10.32
2023-04-30T10:11:09.515Z,7.93
2023-04-30T10:13:49.793Z,9.30
2023-04-30T10:16:20.034Z,6.10
2023-04-30T10:18:48.753Z,5.65
2023-04-30T10:21:19.413Z,5.72
2023-04-30T10:23:46.184Z,7.63
2023-04-30T10:26:14.187Z,6.95
2023-04-30T10:28:40.865Z,6.22
2023-04-30T10:31:07.927Z,12.60
2023-04-30T10:33:37.296Z,6.90
2023-04-30T10:38:30.828Z,8.68
2023-04-30T10:40:57.831Z,9.07
2023-04-30T10:43:25.720Z,8.90
2023-04-30T10:45:52.248Z,9.05
2023-04-30T10:48:22.055Z,9.60
2023-04-30T10:50:50.252Z,5.18
2023-04-30T10:53:18.174Z,5.28
2023-04-30T10:55:47.952Z,5.55
2023-04-30T10:58:23.915Z,5.13
2023-04-30T11:00:59.873Z,8.40
2023-04-30T11:03:28.387Z,7.70
2023-04-30T11:05:55.149Z,5.83
2023-04-30T11:08:31.875Z,6.50
2023-04-30T11:10:59.705Z,5.07
2023-04-30T11:13:26.789Z,6.45
2023-04-30T11:15:54.844Z,6.97
2023-04-30T11:18:21.358Z,9.90
2023-04-30T11:20:49.547Z,7.78
2023-04-30T11:23:22.245Z,15.55
2023-04-30T11:25:58.316Z,10.55
2023-04-30T11:28:25.443Z,8.30
2023-04-30T11:30:52.377Z,8.10
2023-04-30T11:33:20.379Z,9.23
2023-04-30T11:35:47.884Z,10.27
2023-04-30T11:38:15.665Z,16.67
2023-04-30T11:40:42.264Z,6.05
2023-04-30T11:43:08.684Z,23.08
2023-04-30T11:45:35.118Z,19.60
2023-04-30T11:48:01.597Z,13.48
2023-04-30T11:50:33.589Z,5.30
2023-04-30T11:53:00.244Z,7.88
2023-04-30T11:55:27.614Z,7.60
2023-04-30T11:57:54.732Z,8.00
2023-04-30T12:00:22.443Z,5.70
2023-04-30T12:02:49.865Z,9.00
2023-04-30T12:05:16.841Z,6.72
2023-04-30T12:07:52.123Z,9.75
2023-04-30T12:10:21.965Z,8.93
2023-04-30T12:12:49.284Z,13.10
2023-04-30T12:15:17.735Z,8.13
2023-04-30T12:17:44.923Z,8.63
2023-04-30T12:20:12.507Z,6.13
2023-04-30T12:22:39.315Z,8.30
2023-04-30T12:25:08.592Z,10.40
2023-04-30T12:27:35.165Z,12.43
2023-04-30T12:30:02.524Z,7.60
2023-04-30T12:32:29.306Z,8.25
2023-04-30T12:34:58.011Z,8.02
2023-04-30T12:37:29.824Z,11.35
2023-04-30T12:39:56.568Z,13.10
2023-04-30T12:42:24.972Z,7.40
2023-04-30T12:44:51.437Z,11.93
2023-04-30T12:47:18.242Z,13.85
2023-04-30T12:49:45.372Z,10.68
2023-04-30T12:52:12.720Z,9.27
2023-04-30T12:54:39.538Z,6.80
2023-04-30T12:57:09.494Z,7.75
2023-04-30T12:59:38.588Z,8.25
2023-04-30T13:02:08.800Z,11.80
2023-04-30T13:04:35.656Z,8.55
2023-04-30T13:07:02.271Z,8.70
2023-04-30T13:09:28.821Z,9.68
2023-04-30T13:11:55.429Z,7.97
2023-04-30T13:14:21.971Z,6.38
2023-04-30T13:35:49.090Z,8.32
2023-04-30T14:09:34.503Z,6.50
2023-04-30T14:27:17.824Z,6.13
2023-04-30T14:29:48.589Z,4.80
2023-04-30T14:36:26.744Z,7.95
2023-04-30T14:42:23.723Z,4.25
2023-04-30T14:44:54.625Z,10.50
2023-04-30T18:19:54.629Z,12.13
2023-04-30T18:27:39.719Z,6.18
2023-04-30T18:30:21.472Z,9.82
2023-04-30T18:32:58.236Z,11.88
2023-04-30T18:35:33.518Z,9.88
2023-04-30T18:38:09.164Z,11.57
2023-04-30T18:40:38.991Z,12.38
2023-04-30T18:43:12.749Z,10.63
2023-04-30T18:45:40.630Z,9.93
2023-04-30T18:53:43.804Z,12.55
2023-04-30T18:56:12.240Z,9.27
2023-04-30T18:58:55.345Z,9.80
2023-04-30T19:01:25.208Z,7.70
2023-04-30T19:04:04.879Z,11.95
2023-04-30T20:54:14.754Z,13.80
2023-04-30T20:56:41.125Z,14.98
2023-04-30T20:59:07.512Z,13.20
2023-04-30T21:01:34.078Z,12.05
2023-04-30T21:04:00.582Z,15.60
2023-04-30T21:06:27.041Z,14.25
2023-04-30T21:08:53.489Z,16.23
2023-04-30T21:11:21.318Z,19.58
2023-04-30T21:13:50.094Z,16.13
2023-04-30T21:16:17.807Z,13.93
2023-04-30T21:18:44.284Z,13.65
2023-04-30T21:21:10.644Z,16.30
2023-04-30T21:23:37.049Z,16.50
2023-04-30T21:26:03.616Z,13.55
2023-04-30T21:28:31.429Z,15.45
2023-04-30T21:30:57.917Z,15.18
2023-04-30T21:33:24.382Z,15.43
2023-04-30T21:35:50.823Z,15.77
2023-04-30T21:38:17.219Z,11.82
2023-04-30T21:40:43.629Z,13.75
2023-04-30T21:43:10.075Z,12.63
2023-04-30T21:45:37.871Z,12.60
2023-04-30T21:48:04.607Z,14.60
2023-04-30T21:50:32.021Z,13.77
2023-04-30T22:30:40.666Z,15.02
2023-04-30T22:33:07.069Z,11.20
2023-04-30T22:35:35.505Z,13.05
2023-04-30T22:38:01.900Z,10.15
2023-04-30T22:40:28.303Z,11.35
2023-04-30T22:42:54.755Z,16.20
2023-04-30T22:45:21.134Z,12.02
2023-04-30T22:47:48.948Z,11.52
2023-04-30T22:50:15.432Z,12.73
2023-04-30T22:52:41.864Z,14.35
2023-04-30T22:55:08.505Z,15.32
2023-04-30T22:57:34.924Z,13.88
2023-04-30T23:00:01.303Z,11.10
2023-04-30T23:02:27.739Z,12.93
2023-04-30T23:04:55.622Z,17.73
2023-04-30T23:07:22.080Z,14.60
2023-04-30T23:09:48.464Z,16.92
2023-04-30T23:12:14.855Z,12.80
2023-04-30T23:14:41.266Z,14.77
2023-04-30T23:17:07.711Z,16.95
2023-04-30T23:19:34.145Z,18.45
2023-04-30T23:22:01.927Z,13.70
2023-04-30T23:24:28.365Z,12.68
2023-04-30T23:26:54.774Z,17.95
2023-04-30T23:29:21.254Z,16.48
2023-04-30T23:31:47.705Z,14.75
2023-04-30T23:34:14.112Z,11.90
2023-04-30T23:36:40.501Z,16.17
2023-04-30T23:39:08.278Z,14.07
2023-04-30T23:41:34.712Z,13.48
2023-04-30T23:44:01.140Z,13.57
2023-04-30T23:46:27.624Z,13.90
2023-04-30T23:48:54.021Z,12.65
2023-04-30T23:51:20.763Z,14.07
2023-04-30T23:53:47.177Z,13.35
2023-04-30T23:56:15.181Z,13.57
2023-04-30T23:58:41.600Z,15.98
